createdAt,value
2019-05-05T00:01:52.263Z,6.70
2019-05-05T00:04:25.085Z,6.70
2019-05-05T00:06:54.919Z,6.80
2019-05-05T00:09:25.219Z,6.70
2019-05-05T00:12:07.748Z,6.70
2019-05-05T00:14:40.823Z,6.70
2019-05-05T00:17:14.463Z,6.70
2019-05-05T00:19:45.292Z,6.70
2019-05-05T00:22:15.125Z,6.70
2019-05-05T00:24:44.444Z,6.70
2019-05-05T00:27:15.009Z,6.70
2019-05-05T00:29:45.326Z,6.60
2019-05-05T00:32:15.350Z,6.70
2019-05-05T00:34:44.608Z,6.70
2019-05-05T00:37:15.148Z,6.60
2019-05-05T00:39:45.237Z,6.60
2019-05-05T00:42:15.395Z,6.60
2019-05-05T00:44:44.795Z,6.60
2019-05-05T00:47:15.630Z,6.60
2019-05-05T00:49:49.063Z,6.60
2019-05-05T00:52:16.702Z,6.60
2019-05-05T00:54:45.170Z,6.60
2019-05-05T00:57:15.019Z,6.60
2019-05-05T00:59:45.199Z,6.50
2019-05-05T01:02:21.328Z,6.50
2019-05-05T01:05:00.393Z,6.50
2019-05-05T01:07:29.819Z,6.50
2019-05-05T01:09:58.479Z,6.50
2019-05-05T01:12:27.424Z,6.40
2019-05-05T01:14:55.878Z,6.40
2019-05-05T01:17:25.314Z,6.30
2019-05-05T01:20:03.226Z,6.30
2019-05-05T01:22:25.012Z,6.30
2019-05-05T01:24:55.434Z,6.30
2019-05-05T01:27:25.397Z,6.30
2019-05-05T01:29:54.705Z,6.30
2019-05-05T01:32:25.105Z,6.30
2019-05-05T01:34:54.930Z,6.30
2019-05-05T01:37:28.524Z,6.20
2019-05-05T01:40:05.071Z,6.20
2019-05-05T01:42:35.229Z,6.20
2019-05-05T01:45:04.603Z,6.10
2019-05-05T01:47:34.704Z,6.10
2019-05-05T01:50:17.720Z,6.10
2019-05-05T01:52:35.804Z,6.10
2019-05-05T01:55:05.998Z,6.10
2019-05-05T01:57:34.673Z,6.10
2019-05-05T02:00:05.120Z,6.10
2019-05-05T02:02:34.262Z,6.10
2019-05-05T02:05:04.643Z,6.00
2019-05-05T02:07:34.227Z,6.00
2019-05-05T02:10:05.834Z,6.00
2019-05-05T02:12:35.167Z,6.10
2019-05-05T02:15:05.128Z,6.10
2019-05-05T02:17:35.253Z,6.10
2019-05-05T02:20:05.428Z,6.10
2019-05-05T02:22:35.627Z,6.10
2019-05-05T02:25:06.446Z,6.10
2019-05-05T02:27:35.608Z,6.10
2019-05-05T02:30:10.528Z,6.10
2019-05-05T02:32:40.771Z,6.10
2019-05-05T02:35:11.483Z,6.10
2019-05-05T02:37:40.538Z,6.10
2019-05-05T02:40:09.883Z,6.10
2019-05-05T02:42:39.145Z,6.00
2019-05-05T02:45:11.471Z,5.90
2019-05-05T02:47:48.117Z,5.90
2019-05-05T02:50:17.971Z,5.80
2019-05-05T02:52:47.702Z,5.90
2019-05-05T02:55:17.755Z,5.80
2019-05-05T02:57:46.536Z,5.80
2019-05-05T03:00:26.130Z,5.90
2019-05-05T03:02:58.017Z,5.80
2019-05-05T03:05:26.879Z,5.90
2019-05-05T03:07:58.108Z,5.80
2019-05-05T03:10:28.330Z,5.80
2019-05-05T03:12:58.289Z,5.80
2019-05-05T03:15:46.533Z,5.80
2019-05-05T03:18:15.747Z,5.70
2019-05-05T03:20:44.659Z,5.70
2019-05-05T03:23:14.029Z,5.70
2019-05-05T03:25:44.018Z,5.60
2019-05-05T03:28:13.610Z,5.70
2019-05-05T03:30:45.310Z,5.70
2019-05-05T03:33:16.188Z,5.70
2019-05-05T03:35:45.661Z,5.70
2019-05-05T03:38:15.024Z,5.70
2019-05-05T03:40:45.060Z,5.80
2019-05-05T03:43:17.176Z,5.80
2019-05-05T03:45:47.330Z,5.80
2019-05-05T03:48:15.795Z,5.80
2019-05-05T03:50:44.713Z,5.80
2019-05-05T03:53:13.974Z,5.80
2019-05-05T03:55:43.968Z,5.80
2019-05-05T03:58:14.668Z,5.70
2019-05-05T04:00:55.626Z,5.70
2019-05-05T04:03:24.031Z,5.80
2019-05-05T04:06:00.073Z,5.70
2019-05-05T04:08:29.423Z,5.80
2019-05-05T04:10:58.022Z,5.80
2019-05-05T04:13:28.545Z,5.70
2019-05-05T04:16:09.118Z,5.70
2019-05-05T04:18:48.175Z,5.70
2019-05-05T04:21:29.553Z,5.70
2019-05-05T04:23:47.048Z,5.70
2019-05-05T04:26:15.502Z,5.70
2019-05-05T04:28:43.914Z,5.60
2019-05-05T04:31:13.554Z,5.60
2019-05-05T04:33:44.310Z,5.60
2019-05-05T04:36:14.474Z,5.60
2019-05-05T04:38:44.000Z,5.70
2019-05-05T04:41:14.060Z,5.70
2019-05-05T04:43:44.225Z,5.70
2019-05-05T04:46:14.302Z,5.70
2019-05-05T04:48:44.360Z,5.70
2019-05-05T04:51:17.418Z,5.70
2019-05-05T04:54:03.964Z,5.80
2019-05-05T04:56:34.797Z,5.70
2019-05-05T04:59:04.074Z,5.80
2019-05-05T05:01:33.745Z,5.80
2019-05-05T05:04:20.369Z,5.80
2019-05-05T05:07:04.477Z,5.80
2019-05-05T05:09:34.187Z,5.80
2019-05-05T05:12:03.996Z,5.80
2019-05-05T05:14:33.685Z,5.90
2019-05-05T05:17:03.916Z,6.00
2019-05-05T05:19:33.503Z,6.00
2019-05-05T05:22:04.827Z,6.00
2019-05-05T05:24:34.306Z,6.10
2019-05-05T05:27:05.027Z,6.10
2019-05-05T05:29:34.526Z,6.10
2019-05-05T05:32:04.218Z,6.20
2019-05-05T05:34:34.409Z,6.10
2019-05-05T05:37:04.327Z,6.20
2019-05-05T05:39:46.903Z,6.20
2019-05-05T05:42:15.588Z,6.30
2019-05-05T05:44:57.804Z,6.30
2019-05-05T05:47:28.105Z,6.30
2019-05-05T05:50:07.254Z,6.40
2019-05-05T05:52:36.355Z,6.50
2019-05-05T05:55:07.186Z,6.50
2019-05-05T05:57:35.987Z,6.50
2019-05-05T06:00:06.937Z,6.60
2019-05-05T06:02:35.787Z,6.70
2019-05-05T06:05:05.335Z,6.70
2019-05-05T06:07:33.800Z,6.80
2019-05-05T06:10:03.693Z,6.80
2019-05-05T06:12:33.697Z,6.80
2019-05-05T06:15:03.924Z,6.90
2019-05-05T06:17:34.369Z,6.90
2019-05-05T06:20:04.069Z,6.90
2019-05-05T06:22:34.402Z,7.00
2019-05-05T06:25:06.553Z,7.00
2019-05-05T06:27:34.204Z,7.10
2019-05-05T06:30:04.617Z,7.10
2019-05-05T06:32:34.281Z,7.20
2019-05-05T06:35:03.700Z,7.20
2019-05-05T06:37:34.134Z,7.30
2019-05-05T06:40:04.341Z,7.40
2019-05-05T06:42:40.403Z,7.50
2019-05-05T06:45:10.981Z,7.50
2019-05-05T06:47:41.409Z,7.60
2019-05-05T06:50:10.429Z,7.50
2019-05-05T06:52:44.295Z,7.50
2019-05-05T06:55:09.311Z,7.50
2019-05-05T06:57:37.761Z,7.60
2019-05-05T07:00:09.318Z,7.60
2019-05-05T07:02:37.740Z,7.60
2019-05-05T07:05:06.518Z,7.60
2019-05-05T07:07:34.937Z,7.60
2019-05-05T07:10:04.979Z,7.70
2019-05-05T07:12:34.706Z,7.80
2019-05-05T07:15:04.654Z,7.90
2019-05-05T07:17:35.034Z,8.00
2019-05-05T07:20:06.157Z,8.10
2019-05-05T07:22:34.824Z,8.10
2019-05-05T07:25:04.770Z,8.30
2019-05-05T07:27:33.883Z,8.40
2019-05-05T07:30:04.750Z,8.50
2019-05-05T07:32:33.870Z,8.60
2019-05-05T07:35:05.322Z,8.70
2019-05-05T07:37:34.386Z,8.80
2019-05-05T07:40:04.640Z,8.90
2019-05-05T07:42:33.610Z,9.10
2019-05-05T07:45:05.406Z,9.10
2019-05-05T07:47:34.241Z,9.20
2019-05-05T07:50:04.155Z,9.20
2019-05-05T07:52:34.390Z,9.20
2019-05-05T07:55:03.755Z,9.30
2019-05-05T07:57:34.190Z,9.30
2019-05-05T08:00:05.263Z,9.30
2019-05-05T08:02:33.878Z,9.30
2019-05-05T08:05:04.522Z,9.40
2019-05-05T08:07:34.015Z,9.50
2019-05-05T08:10:04.597Z,9.50
2019-05-05T08:12:34.211Z,9.50
2019-05-05T08:15:04.915Z,9.50
2019-05-05T08:17:53.851Z,9.60
2019-05-05T08:20:38.734Z,9.50
2019-05-05T08:23:09.049Z,9.50
2019-05-05T08:25:40.393Z,9.50
2019-05-05T08:28:27.838Z,9.50
2019-05-05T08:30:58.332Z,9.50
2019-05-05T08:33:27.099Z,9.50
2019-05-05T08:35:55.582Z,9.50
2019-05-05T08:38:24.329Z,9.50
2019-05-05T08:40:54.330Z,9.40
2019-05-05T08:43:24.163Z,9.50
2019-05-05T08:45:55.255Z,9.40
2019-05-05T08:48:24.670Z,9.40
2019-05-05T08:50:54.151Z,9.40
2019-05-05T08:53:24.314Z,9.40
2019-05-05T08:55:54.611Z,9.40
2019-05-05T08:58:23.883Z,9.40
2019-05-05T09:00:53.682Z,9.40
2019-05-05T09:03:24.261Z,9.50
2019-05-05T09:05:54.213Z,9.60
2019-05-05T09:08:24.126Z,9.60
2019-05-05T09:10:55.027Z,9.70
2019-05-05T09:13:24.672Z,9.70
2019-05-05T09:15:54.373Z,9.90
2019-05-05T09:18:24.586Z,10.00
2019-05-05T09:20:53.756Z,10.10
2019-05-05T09:23:23.998Z,10.10
2019-05-05T09:25:54.310Z,10.20
2019-05-05T09:28:34.180Z,10.60
2019-05-05T09:31:04.191Z,10.80
2019-05-05T09:33:33.991Z,11.30
2019-05-05T09:36:04.664Z,11.70
2019-05-05T09:38:34.695Z,11.80
2019-05-05T09:41:03.879Z,12.00
2019-05-05T09:43:34.523Z,12.50
2019-05-05T09:46:03.917Z,13.10
2019-05-05T09:48:33.546Z,13.80
2019-05-05T09:51:04.328Z,14.30
2019-05-05T09:53:34.507Z,14.20
2019-05-05T09:56:04.037Z,13.90
2019-05-05T09:58:34.726Z,13.70
2019-05-05T10:01:04.696Z,13.50
2019-05-05T10:03:34.063Z,13.30
2019-05-05T10:06:05.038Z,13.10
2019-05-05T10:08:34.100Z,12.80
2019-05-05T10:11:04.140Z,12.50
2019-05-05T10:13:33.756Z,12.20
2019-05-05T10:16:04.073Z,11.90
2019-05-05T10:18:35.548Z,11.70
2019-05-05T10:21:04.663Z,11.60
2019-05-05T10:23:35.147Z,11.60
2019-05-05T10:26:05.261Z,11.50
2019-05-05T10:28:35.074Z,11.30
2019-05-05T10:31:04.634Z,11.20
2019-05-05T10:33:36.449Z,11.10
2019-05-05T10:36:05.282Z,11.10
2019-05-05T10:38:35.733Z,11.10
2019-05-05T10:41:04.335Z,11.20
2019-05-05T10:43:34.338Z,11.30
2019-05-05T10:46:03.915Z,11.50
2019-05-05T10:48:34.054Z,11.60
2019-05-05T10:51:04.243Z,11.70
2019-05-05T10:53:32.879Z,11.70
2019-05-05T10:56:01.616Z,11.70
2019-05-05T10:58:30.052Z,11.70
2019-05-05T11:01:00.652Z,11.60
2019-05-05T11:03:29.735Z,11.60
2019-05-05T11:05:58.661Z,11.60
2019-05-05T11:08:30.684Z,11.60
2019-05-05T11:10:58.878Z,11.60
2019-05-05T11:13:27.991Z,11.50
2019-05-05T11:15:56.475Z,11.40
2019-05-05T11:18:25.135Z,11.40
2019-05-05T11:20:54.880Z,11.30
2019-05-05T11:23:24.916Z,11.30
2019-05-05T11:25:54.501Z,11.40
2019-05-05T11:28:23.126Z,11.60
2019-05-05T11:30:53.614Z,11.70
2019-05-05T11:33:29.139Z,11.90
2019-05-05T11:36:08.466Z,11.90
2019-05-05T11:38:37.212Z,12.00
2019-05-05T11:41:05.702Z,12.00
2019-05-05T11:43:34.124Z,11.90
2019-05-05T11:46:03.583Z,11.80
2019-05-05T11:48:34.367Z,11.90
2019-05-05T11:51:04.510Z,11.90
2019-05-05T11:53:33.969Z,12.00
2019-05-05T11:56:04.201Z,12.00
2019-05-05T11:58:34.038Z,12.10
2019-05-05T12:01:03.848Z,12.20
2019-05-05T12:03:33.965Z,12.20
2019-05-05T12:06:04.034Z,12.30
2019-05-05T12:08:34.566Z,12.30
2019-05-05T12:11:05.131Z,12.40
2019-05-05T12:13:33.981Z,12.40
2019-05-05T12:16:04.693Z,12.40
2019-05-05T12:18:34.327Z,12.30
2019-05-05T12:21:05.158Z,12.40
2019-05-05T12:23:34.152Z,12.40
2019-05-05T12:26:24.319Z,12.50
2019-05-05T12:28:54.673Z,12.50
2019-05-05T12:31:34.073Z,12.50
2019-05-05T12:34:03.945Z,12.60
2019-05-05T12:36:34.210Z,12.60
2019-05-05T12:39:04.374Z,12.60
2019-05-05T12:41:34.009Z,12.50
2019-05-05T12:44:03.898Z,12.50
2019-05-05T12:46:38.502Z,12.60
2019-05-05T12:49:08.640Z,12.70
2019-05-05T12:51:37.928Z,12.70
2019-05-05T12:54:06.583Z,12.70
2019-05-05T12:56:35.092Z,12.90
2019-05-05T12:59:05.499Z,12.90
2019-05-05T13:01:39.180Z,13.00
2019-05-05T13:04:07.624Z,13.00
2019-05-05T13:06:36.479Z,12.90
2019-05-05T13:09:07.620Z,12.90
2019-05-05T13:11:36.549Z,13.00
2019-05-05T13:14:05.464Z,13.10
2019-05-05T13:16:34.115Z,13.30
2019-05-05T13:19:04.546Z,13.30
2019-05-05T13:21:50.788Z,13.30
2019-05-05T13:24:23.873Z,13.30
2019-05-05T13:26:56.188Z,13.30
2019-05-05T13:29:24.760Z,13.30
2019-05-05T13:31:54.363Z,13.20
2019-05-05T13:34:23.531Z,13.10
2019-05-05T13:36:52.695Z,13.00
2019-05-05T13:39:24.558Z,13.00
2019-05-05T13:41:54.010Z,13.00
2019-05-05T13:44:30.337Z,12.90
2019-05-05T13:46:59.189Z,12.90
2019-05-05T13:49:32.545Z,12.90
2019-05-05T13:52:04.707Z,12.90
2019-05-05T13:54:34.226Z,12.90
2019-05-05T13:57:03.926Z,12.90
2019-05-05T13:59:33.927Z,12.80
2019-05-05T14:02:03.822Z,12.80
2019-05-05T14:04:34.262Z,12.80
2019-05-05T14:07:04.004Z,12.70
2019-05-05T14:09:35.036Z,12.70
2019-05-05T14:12:04.161Z,12.70
2019-05-05T14:14:33.622Z,12.60
2019-05-05T14:17:04.054Z,12.60
2019-05-05T14:19:34.090Z,12.50
2019-05-05T14:22:04.463Z,12.50
2019-05-05T14:24:36.422Z,12.40
2019-05-05T14:27:05.468Z,12.40
2019-05-05T14:29:40.471Z,12.40
2019-05-05T14:32:11.016Z,12.40
2019-05-05T14:34:41.363Z,12.30
2019-05-05T14:37:25.789Z,12.30
2019-05-05T14:39:55.081Z,12.30
2019-05-05T14:42:23.934Z,12.30
2019-05-05T14:44:54.396Z,12.20
2019-05-05T14:47:24.508Z,12.20
2019-05-05T14:49:54.096Z,12.20
2019-05-05T14:52:24.520Z,12.20
2019-05-05T14:54:54.320Z,12.20
2019-05-05T14:57:24.746Z,12.20
2019-05-05T14:59:54.041Z,12.20
2019-05-05T15:02:24.411Z,12.20
2019-05-05T15:04:54.049Z,12.20
2019-05-05T15:07:24.962Z,12.20
2019-05-05T15:09:56.017Z,12.20
2019-05-05T15:12:26.408Z,12.20
2019-05-05T15:14:55.212Z,12.20
2019-05-05T15:17:25.148Z,12.20
2019-05-05T15:19:54.768Z,12.10
2019-05-05T15:22:23.935Z,12.10
2019-05-05T15:24:53.619Z,12.10
2019-05-05T15:27:24.166Z,12.30
2019-05-05T15:29:54.256Z,12.40
2019-05-05T15:32:24.015Z,12.40
2019-05-05T15:34:54.716Z,12.50
2019-05-05T15:37:23.830Z,12.50
2019-05-05T15:39:53.553Z,12.40
2019-05-05T15:42:22.375Z,12.40
2019-05-05T15:44:51.259Z,12.30
2019-05-05T15:47:19.748Z,12.30
2019-05-05T15:49:48.619Z,12.30
2019-05-05T15:52:20.002Z,12.20
2019-05-05T15:54:48.216Z,12.20
2019-05-05T15:57:18.294Z,12.10
2019-05-05T15:59:47.663Z,12.10
2019-05-05T16:02:16.285Z,12.10
2019-05-05T16:04:44.741Z,12.10
2019-05-05T16:07:13.912Z,12.10
2019-05-05T16:09:44.434Z,12.10
2019-05-05T16:12:14.287Z,12.20
2019-05-05T16:14:46.179Z,12.20
2019-05-05T16:17:24.149Z,12.30
2019-05-05T16:19:57.799Z,12.30
2019-05-05T16:22:28.334Z,12.40
2019-05-05T16:25:14.097Z,12.40
2019-05-05T16:27:44.558Z,12.40
2019-05-05T16:30:15.766Z,12.40
2019-05-05T16:32:44.662Z,12.40
2019-05-05T16:35:15.412Z,12.30
2019-05-05T16:37:43.874Z,12.30
2019-05-05T16:40:14.430Z,12.20
2019-05-05T16:42:43.700Z,12.10
2019-05-05T16:45:16.428Z,12.20
2019-05-05T16:47:44.601Z,12.10
2019-05-05T16:50:13.697Z,12.10
2019-05-05T16:52:46.089Z,11.90
2019-05-05T16:55:20.245Z,11.80
2019-05-05T16:57:48.761Z,11.60
2019-05-05T17:00:17.551Z,11.50
2019-05-05T17:02:46.040Z,11.30
2019-05-05T17:05:15.073Z,11.20
2019-05-05T17:07:43.546Z,11.00
2019-05-05T17:10:13.830Z,10.90
2019-05-05T17:12:44.215Z,10.80
2019-05-05T17:15:16.738Z,10.60
2019-05-05T17:17:49.884Z,10.50
2019-05-05T17:20:20.373Z,10.50
2019-05-05T17:22:59.466Z,10.40
2019-05-05T17:25:28.201Z,10.40
2019-05-05T17:27:56.961Z,10.30
2019-05-05T17:30:27.194Z,10.30
2019-05-05T17:32:56.094Z,10.30
2019-05-05T17:35:25.127Z,10.30
2019-05-05T17:37:55.687Z,10.30
2019-05-05T17:40:44.401Z,10.20
2019-05-05T17:43:31.092Z,10.20
2019-05-05T17:46:10.436Z,10.10
2019-05-05T17:48:40.913Z,10.10
2019-05-05T17:51:11.293Z,10.00
2019-05-05T17:53:44.061Z,10.00
2019-05-05T17:56:14.162Z,10.00
2019-05-05T17:58:44.356Z,10.00
2019-05-05T18:01:12.927Z,10.00
2019-05-05T18:03:43.568Z,10.00
2019-05-05T18:06:29.590Z,10.00
2019-05-05T18:08:59.773Z,10.10
2019-05-05T18:11:35.221Z,10.10
2019-05-05T18:14:08.057Z,10.10
2019-05-05T18:16:36.929Z,10.10
2019-05-05T18:19:05.518Z,10.10
2019-05-05T18:21:35.248Z,10.10
2019-05-05T18:24:04.686Z,10.10
2019-05-05T18:26:34.166Z,10.10
2019-05-05T18:29:03.748Z,10.20
2019-05-05T18:31:33.688Z,10.20
2019-05-05T18:34:03.976Z,10.20
2019-05-05T18:36:33.020Z,10.20
2019-05-05T18:39:01.491Z,10.20
2019-05-05T18:41:48.074Z,10.20
2019-05-05T18:44:18.161Z,10.20
2019-05-05T18:46:48.479Z,10.20
2019-05-05T18:49:17.391Z,10.20
2019-05-05T18:51:46.236Z,10.10
2019-05-05T18:54:14.782Z,10.10
2019-05-05T18:56:44.032Z,10.00
2019-05-05T18:59:12.628Z,10.00
2019-05-05T19:01:46.668Z,9.90
2019-05-05T19:04:17.717Z,9.90
2019-05-05T19:06:54.549Z,9.90
2019-05-05T19:09:24.949Z,9.90
2019-05-05T19:11:54.541Z,9.90
2019-05-05T19:14:24.161Z,9.90
2019-05-05T19:16:55.375Z,9.80
2019-05-05T19:19:24.620Z,9.80
2019-05-05T19:22:07.696Z,9.80
2019-05-05T19:24:36.328Z,9.80
2019-05-05T19:27:05.517Z,9.80
2019-05-05T19:29:34.239Z,9.70
2019-05-05T19:32:04.114Z,9.70
2019-05-05T19:34:35.087Z,9.70
2019-05-05T19:37:03.999Z,9.60
2019-05-05T19:39:34.425Z,9.60
2019-05-05T19:42:04.828Z,9.60
2019-05-05T19:44:33.908Z,9.50
2019-05-05T19:47:19.163Z,9.50
2019-05-05T19:49:49.650Z,9.40
2019-05-05T19:52:18.565Z,9.40
2019-05-05T19:54:47.665Z,9.40
2019-05-05T19:57:16.702Z,9.40
2019-05-05T19:59:45.438Z,9.40
2019-05-05T20:02:14.551Z,9.40
2019-05-05T20:04:44.535Z,9.40
2019-05-05T20:07:13.989Z,9.40
2019-05-05T20:09:43.622Z,9.40
2019-05-05T20:12:14.757Z,9.40
2019-05-05T20:14:43.688Z,9.40
2019-05-05T20:17:22.943Z,9.30
2019-05-05T20:19:51.496Z,9.40
2019-05-05T20:22:20.277Z,9.40
2019-05-05T20:24:49.026Z,9.30
2019-05-05T20:27:17.445Z,9.40
2019-05-05T20:29:45.942Z,9.40
2019-05-05T20:32:16.131Z,9.40
2019-05-05T20:34:46.263Z,9.40
2019-05-05T20:37:16.372Z,9.40
2019-05-05T20:39:44.840Z,9.40
2019-05-05T20:42:14.870Z,9.40
2019-05-05T20:44:44.001Z,9.40
2019-05-05T20:47:13.153Z,9.40
2019-05-05T20:49:41.821Z,9.40
2019-05-05T20:52:10.295Z,9.30
2019-05-05T20:54:38.745Z,9.20
2019-05-05T20:57:07.344Z,9.20
2019-05-05T20:59:35.744Z,9.20
2019-05-05T21:02:04.611Z,9.20
2019-05-05T21:04:34.505Z,9.20
2019-05-05T21:07:04.399Z,9.20
2019-05-05T21:09:34.522Z,9.10
2019-05-05T21:12:04.749Z,9.10
2019-05-05T21:14:35.410Z,9.10
2019-05-05T21:17:04.193Z,9.20
2019-05-05T21:19:34.597Z,9.20
2019-05-05T21:22:21.246Z,9.20
2019-05-05T21:24:49.949Z,9.20
2019-05-05T21:27:18.512Z,9.30
2019-05-05T21:29:46.958Z,9.30
2019-05-05T21:32:15.472Z,9.30
2019-05-05T21:34:44.531Z,9.30
2019-05-05T21:37:14.107Z,9.20
2019-05-05T21:39:42.820Z,9.20
2019-05-05T21:42:11.214Z,9.30
2019-05-05T21:44:39.696Z,9.30
2019-05-05T21:47:08.622Z,9.30
2019-05-05T21:49:37.042Z,9.40
2019-05-05T21:52:10.803Z,9.40
2019-05-05T21:54:47.061Z,9.40
2019-05-05T21:57:34.543Z,9.40
2019-05-05T22:00:06.324Z,9.40
2019-05-05T22:02:34.857Z,9.40
2019-05-05T22:05:04.425Z,9.40
2019-05-05T22:07:33.638Z,9.50
2019-05-05T22:10:04.510Z,9.40
2019-05-05T22:12:36.390Z,9.40
2019-05-05T22:15:06.194Z,9.40
2019-05-05T22:17:36.389Z,9.40
2019-05-05T22:20:19.541Z,9.40
2019-05-05T22:22:48.460Z,9.40
2019-05-05T22:25:16.925Z,9.40
2019-05-05T22:27:45.809Z,9.40
2019-05-05T22:30:14.486Z,9.40
2019-05-05T22:32:44.176Z,9.40
2019-05-05T22:35:14.032Z,9.40
2019-05-05T22:37:44.012Z,9.40
2019-05-05T22:40:20.992Z,9.50
2019-05-05T22:42:51.390Z,9.50
2019-05-05T22:45:19.917Z,9.50
2019-05-05T22:47:48.414Z,9.40
2019-05-05T22:50:17.486Z,9.40
2019-05-05T22:52:45.986Z,9.40
2019-05-05T22:55:15.099Z,9.40
2019-05-05T22:57:45.212Z,9.40
2019-05-05T23:00:26.626Z,9.40
2019-05-05T23:02:54.871Z,9.40
2019-05-05T23:05:27.863Z,9.40
2019-05-05T23:07:56.361Z,9.30
2019-05-05T23:10:24.877Z,9.30
2019-05-05T23:12:54.409Z,9.30
2019-05-05T23:15:25.425Z,9.30
2019-05-05T23:17:57.892Z,9.30
2019-05-05T23:21:01.377Z,9.30
2019-05-05T23:23:46.206Z,9.30
2019-05-05T23:26:19.229Z,9.30
2019-05-05T23:28:47.651Z,9.20
2019-05-05T23:31:16.364Z,9.20
2019-05-05T23:33:45.070Z,9.30
2019-05-05T23:36:14.793Z,9.20
2019-05-05T23:38:44.840Z,9.30
2019-05-05T23:41:14.681Z,9.30
2019-05-05T23:43:45.036Z,9.30
2019-05-05T23:46:14.348Z,9.30
2019-05-05T23:48:43.365Z,9.40
2019-05-05T23:51:13.764Z,9.40
2019-05-05T23:53:44.304Z,9.40
2019-05-05T23:56:13.628Z,9.40
2019-05-05T23:58:44.155Z,9.40
